sensor_id;sensor_type;location;lat;lon;timestamp;P1;durP1;ratioP1;P2;durP2;ratioP2
57593;SDS011;43423;46.510;6.686;2023-04-03T00:00:38;2.15;;;1.63;;
57593;SDS011;43423;46.510;6.686;2023-04-03T00:03:15;2.33;;;1.77;;
57593;SDS011;43423;46.510;6.686;2023-04-03T00:05:42;2.20;;;1.67;;
57593;SDS011;43423;46.510;6.686;2023-04-03T00:08:07;4.32;;;2.17;;
57593;SDS011;43423;46.510;6.686;2023-04-03T00:10:35;4.10;;;1.70;;
57593;SDS011;43423;46.510;6.686;2023-04-03T00:13:02;2.90;;;2.30;;
57593;SDS011;43423;46.510;6.686;2023-04-03T00:15:29;4.00;;;2.25;;
57593;SDS011;43423;46.510;6.686;2023-04-03T00:17:54;2.35;;;2.00;;
57593;SDS011;43423;46.510;6.686;2023-04-03T00:20:20;4.75;;;2.35;;
57593;SDS011;43423;46.510;6.686;2023-04-03T00:22:45;6.25;;;2.58;;
57593;SDS011;43423;46.510;6.686;2023-04-03T00:25:12;3.63;;;2.22;;
57593;SDS011;43423;46.510;6.686;2023-04-03T00:27:37;1.75;;;1.60;;
57593;SDS011;43423;46.510;6.686;2023-04-03T00:30:04;2.40;;;1.65;;
57593;SDS011;43423;46.510;6.686;2023-04-03T00:32:31;3.33;;;1.05;;
57593;SDS011;43423;46.510;6.686;2023-04-03T00:34:57;3.00;;;1.10;;
57593;SDS011;43423;46.510;6.686;2023-04-03T00:37:22;4.40;;;1.15;;
57593;SDS011;43423;46.510;6.686;2023-04-03T00:39:48;0.80;;;0.80;;
57593;SDS011;43423;46.510;6.686;2023-04-03T00:42:14;1.90;;;1.08;;
57593;SDS011;43423;46.510;6.686;2023-04-03T00:47:05;0.80;;;0.65;;
57593;SDS011;43423;46.510;6.686;2023-04-03T00:49:34;2.35;;;1.08;;
57593;SDS011;43423;46.510;6.686;2023-04-03T00:52:02;0.50;;;0.50;;
57593;SDS011;43423;46.510;6.686;2023-04-03T00:54:28;0.80;;;0.80;;
57593;SDS011;43423;46.510;6.686;2023-04-03T00:56:54;0.60;;;0.60;;
57593;SDS011;43423;46.510;6.686;2023-04-03T00:59:27;0.68;;;0.45;;
57593;SDS011;43423;46.510;6.686;2023-04-03T01:01:58;0.82;;;0.47;;
57593;SDS011;43423;46.510;6.686;2023-04-03T01:06:54;1.45;;;1.00;;
57593;SDS011;43423;46.510;6.686;2023-04-03T01:09:23;0.98;;;0.90;;
57593;SDS011;43423;46.510;6.686;2023-04-03T01:11:48;1.70;;;1.17;;
57593;SDS011;43423;46.510;6.686;2023-04-03T01:14:14;5.13;;;1.77;;
57593;SDS011;43423;46.510;6.686;2023-04-03T01:16:40;2.92;;;1.80;;
57593;SDS011;43423;46.510;6.686;2023-04-03T01:19:07;2.85;;;2.20;;
57593;SDS011;43423;46.510;6.686;2023-04-03T01:21:46;3.22;;;2.10;;
57593;SDS011;43423;46.510;6.686;2023-04-03T01:24:35;2.78;;;1.85;;
57593;SDS011;43423;46.510;6.686;2023-04-03T01:27:04;8.80;;;2.25;;
57593;SDS011;43423;46.510;6.686;2023-04-03T01:29:33;2.47;;;1.58;;
57593;SDS011;43423;46.510;6.686;2023-04-03T01:32:00;3.33;;;1.88;;
57593;SDS011;43423;46.510;6.686;2023-04-03T01:34:28;1.55;;;1.38;;
57593;SDS011;43423;46.510;6.686;2023-04-03T01:36:54;1.10;;;1.00;;
57593;SDS011;43423;46.510;6.686;2023-04-03T01:39:20;1.52;;;1.13;;
57593;SDS011;43423;46.510;6.686;2023-04-03T01:41:46;2.05;;;1.23;;
57593;SDS011;43423;46.510;6.686;2023-04-03T01:44:12;1.85;;;1.38;;
57593;SDS011;43423;46.510;6.686;2023-04-03T01:46:37;1.75;;;0.90;;
57593;SDS011;43423;46.510;6.686;2023-04-03T01:49:03;2.25;;;1.10;;
57593;SDS011;43423;46.510;6.686;2023-04-03T01:51:29;0.70;;;0.70;;
57593;SDS011;43423;46.510;6.686;2023-04-03T01:53:55;1.00;;;0.90;;
57593;SDS011;43423;46.510;6.686;2023-04-03T01:56:21;1.00;;;0.82;;
57593;SDS011;43423;46.510;6.686;2023-04-03T01:58:46;1.58;;;1.00;;
57593;SDS011;43423;46.510;6.686;2023-04-03T02:01:12;1.10;;;1.00;;
57593;SDS011;43423;46.510;6.686;2023-04-03T02:03:37;1.02;;;1.00;;
57593;SDS011;43423;46.510;6.686;2023-04-03T02:06:03;1.25;;;1.13;;
57593;SDS011;43423;46.510;6.686;2023-04-03T02:08:29;1.65;;;1.15;;
57593;SDS011;43423;46.510;6.686;2023-04-03T02:10:54;1.23;;;1.13;;
57593;SDS011;43423;46.510;6.686;2023-04-03T02:13:20;1.40;;;1.30;;
57593;SDS011;43423;46.510;6.686;2023-04-03T02:15:46;2.00;;;1.52;;
57593;SDS011;43423;46.510;6.686;2023-04-03T02:18:11;2.05;;;1.60;;
57593;SDS011;43423;46.510;6.686;2023-04-03T02:20:37;2.30;;;1.40;;
57593;SDS011;43423;46.510;6.686;2023-04-03T02:23:04;1.55;;;1.33;;
57593;SDS011;43423;46.510;6.686;2023-04-03T02:25:31;1.95;;;1.58;;
57593;SDS011;43423;46.510;6.686;2023-04-03T02:27:58;1.40;;;1.30;;
57593;SDS011;43423;46.510;6.686;2023-04-03T02:30:23;3.10;;;1.45;;
57593;SDS011;43423;46.510;6.686;2023-04-03T02:32:49;1.63;;;1.40;;
57593;SDS011;43423;46.510;6.686;2023-04-03T02:35:14;1.40;;;1.30;;
57593;SDS011;43423;46.510;6.686;2023-04-03T02:37:40;1.40;;;1.30;;
57593;SDS011;43423;46.510;6.686;2023-04-03T02:40:06;1.75;;;1.50;;
57593;SDS011;43423;46.510;6.686;2023-04-03T02:42:33;1.50;;;1.40;;
57593;SDS011;43423;46.510;6.686;2023-04-03T02:44:59;1.70;;;1.60;;
57593;SDS011;43423;46.510;6.686;2023-04-03T02:47:26;1.77;;;1.48;;
57593;SDS011;43423;46.510;6.686;2023-04-03T02:49:52;1.88;;;1.70;;
57593;SDS011;43423;46.510;6.686;2023-04-03T02:52:18;1.50;;;1.40;;
57593;SDS011;43423;46.510;6.686;2023-04-03T02:54:43;1.75;;;1.65;;
57593;SDS011;43423;46.510;6.686;2023-04-03T02:57:09;1.42;;;1.33;;
57593;SDS011;43423;46.510;6.686;2023-04-03T02:59:38;1.40;;;1.30;;
57593;SDS011;43423;46.510;6.686;2023-04-03T03:02:07;2.03;;;1.83;;
57593;SDS011;43423;46.510;6.686;2023-04-03T03:04:33;2.33;;;1.95;;
57593;SDS011;43423;46.510;6.686;2023-04-03T03:07:00;2.15;;;1.90;;
57593;SDS011;43423;46.510;6.686;2023-04-03T03:09:25;1.95;;;1.80;;
57593;SDS011;43423;46.510;6.686;2023-04-03T03:11:51;1.88;;;1.58;;
57593;SDS011;43423;46.510;6.686;2023-04-03T03:14:17;3.10;;;1.65;;
57593;SDS011;43423;46.510;6.686;2023-04-03T03:16:43;1.73;;;1.63;;
57593;SDS011;43423;46.510;6.686;2023-04-03T03:19:09;2.05;;;1.60;;
57593;SDS011;43423;46.510;6.686;2023-04-03T03:21:35;1.60;;;1.50;;
57593;SDS011;43423;46.510;6.686;2023-04-03T03:24:01;2.72;;;2.00;;
57593;SDS011;43423;46.510;6.686;2023-04-03T03:26:27;1.75;;;1.63;;
57593;SDS011;43423;46.510;6.686;2023-04-03T03:28:52;2.80;;;2.10;;
57593;SDS011;43423;46.510;6.686;2023-04-03T03:31:18;2.60;;;2.22;;
57593;SDS011;43423;46.510;6.686;2023-04-03T03:33:43;3.63;;;2.22;;
57593;SDS011;43423;46.510;6.686;2023-04-03T03:36:09;2.33;;;1.90;;
57593;SDS011;43423;46.510;6.686;2023-04-03T03:38:35;2.42;;;1.98;;
57593;SDS011;43423;46.510;6.686;2023-04-03T03:41:02;3.97;;;2.10;;
57593;SDS011;43423;46.510;6.686;2023-04-03T03:43:27;2.38;;;2.17;;
57593;SDS011;43423;46.510;6.686;2023-04-03T03:45:53;2.10;;;1.90;;
57593;SDS011;43423;46.510;6.686;2023-04-03T03:48:20;1.75;;;1.60;;
57593;SDS011;43423;46.510;6.686;2023-04-03T03:50:47;1.23;;;1.20;;
57593;SDS011;43423;46.510;6.686;2023-04-03T03:53:13;1.75;;;1.40;;
57593;SDS011;43423;46.510;6.686;2023-04-03T03:55:40;1.35;;;1.25;;
57593;SDS011;43423;46.510;6.686;2023-04-03T03:58:06;2.65;;;1.70;;
57593;SDS011;43423;46.510;6.686;2023-04-03T04:00:32;1.48;;;1.38;;
57593;SDS011;43423;46.510;6.686;2023-04-03T04:02:57;2.35;;;1.70;;
57593;SDS011;43423;46.510;6.686;2023-04-03T04:05:23;1.80;;;1.52;;
57593;SDS011;43423;46.510;6.686;2023-04-03T04:07:48;1.98;;;1.77;;
57593;SDS011;43423;46.510;6.686;2023-04-03T04:10:14;1.70;;;1.60;;
57593;SDS011;43423;46.510;6.686;2023-04-03T04:12:40;2.53;;;2.10;;
57593;SDS011;43423;46.510;6.686;2023-04-03T04:15:06;1.92;;;1.73;;
57593;SDS011;43423;46.510;6.686;2023-04-03T04:17:32;2.40;;;1.67;;
57593;SDS011;43423;46.510;6.686;2023-04-03T04:19:57;2.30;;;1.60;;
57593;SDS011;43423;46.510;6.686;2023-04-03T04:22:23;1.70;;;1.60;;
57593;SDS011;43423;46.510;6.686;2023-04-03T04:24:49;2.30;;;2.00;;
57593;SDS011;43423;46.510;6.686;2023-04-03T04:27:14;2.30;;;1.83;;
57593;SDS011;43423;46.510;6.686;2023-04-03T04:29:41;2.22;;;1.85;;
57593;SDS011;43423;46.510;6.686;2023-04-03T04:32:06;1.92;;;1.35;;
57593;SDS011;43423;46.510;6.686;2023-04-03T04:34:32;1.70;;;1.60;;
57593;SDS011;43423;46.510;6.686;2023-04-03T04:36:57;1.88;;;1.48;;
57593;SDS011;43423;46.510;6.686;2023-04-03T04:39:23;3.47;;;1.92;;
57593;SDS011;43423;46.510;6.686;2023-04-03T04:41:49;2.25;;;1.63;;
57593;SDS011;43423;46.510;6.686;2023-04-03T04:44:14;2.30;;;1.90;;
57593;SDS011;43423;46.510;6.686;2023-04-03T04:46:40;4.38;;;1.70;;
57593;SDS011;43423;46.510;6.686;2023-04-03T04:49:06;2.15;;;1.63;;
57593;SDS011;43423;46.510;6.686;2023-04-03T04:51:31;2.50;;;1.83;;
57593;SDS011;43423;46.510;6.686;2023-04-03T04:53:57;1.95;;;1.67;;
57593;SDS011;43423;46.510;6.686;2023-04-03T04:56:22;2.72;;;1.88;;
57593;SDS011;43423;46.510;6.686;2023-04-03T04:58:48;2.78;;;1.75;;
57593;SDS011;43423;46.510;6.686;2023-04-03T05:01:13;2.22;;;1.98;;
57593;SDS011;43423;46.510;6.686;2023-04-03T05:03:39;2.95;;;1.98;;
57593;SDS011;43423;46.510;6.686;2023-04-03T05:06:05;3.45;;;2.42;;
57593;SDS011;43423;46.510;6.686;2023-04-03T05:08:31;3.45;;;2.30;;
57593;SDS011;43423;46.510;6.686;2023-04-03T05:10:56;4.20;;;2.50;;
57593;SDS011;43423;46.510;6.686;2023-04-03T05:13:22;3.63;;;2.33;;
57593;SDS011;43423;46.510;6.686;2023-04-03T05:15:47;5.47;;;3.40;;
57593;SDS011;43423;46.510;6.686;2023-04-03T05:18:13;4.55;;;2.58;;
57593;SDS011;43423;46.510;6.686;2023-04-03T05:20:38;5.65;;;3.42;;
57593;SDS011;43423;46.510;6.686;2023-04-03T05:23:04;6.55;;;3.70;;
57593;SDS011;43423;46.510;6.686;2023-04-03T05:25:30;5.40;;;3.90;;
57593;SDS011;43423;46.510;6.686;2023-04-03T05:27:56;4.28;;;2.90;;
57593;SDS011;43423;46.510;6.686;2023-04-03T05:30:21;6.15;;;3.20;;
57593;SDS011;43423;46.510;6.686;2023-04-03T05:32:47;6.70;;;4.28;;
57593;SDS011;43423;46.510;6.686;2023-04-03T05:35:13;7.43;;;4.30;;
57593;SDS011;43423;46.510;6.686;2023-04-03T05:37:38;6.38;;;3.63;;
57593;SDS011;43423;46.510;6.686;2023-04-03T05:40:04;6.30;;;3.85;;
57593;SDS011;43423;46.510;6.686;2023-04-03T05:42:31;6.68;;;4.38;;
57593;SDS011;43423;46.510;6.686;2023-04-03T05:44:57;7.10;;;4.10;;
57593;SDS011;43423;46.510;6.686;2023-04-03T05:47:22;6.05;;;4.00;;
57593;SDS011;43423;46.510;6.686;2023-04-03T05:49:48;6.45;;;3.83;;
57593;SDS011;43423;46.510;6.686;2023-04-03T05:52:22;9.07;;;4.50;;
57593;SDS011;43423;46.510;6.686;2023-04-03T05:54:48;6.70;;;4.18;;
57593;SDS011;43423;46.510;6.686;2023-04-03T05:57:14;8.55;;;4.10;;
57593;SDS011;43423;46.510;6.686;2023-04-03T05:59:41;7.30;;;3.90;;
57593;SDS011;43423;46.510;6.686;2023-04-03T06:02:10;6.93;;;4.15;;
57593;SDS011;43423;46.510;6.686;2023-04-03T06:04:37;9.20;;;4.38;;
57593;SDS011;43423;46.510;6.686;2023-04-03T06:07:03;8.15;;;4.30;;
57593;SDS011;43423;46.510;6.686;2023-04-03T06:09:29;7.28;;;4.93;;
57593;SDS011;43423;46.510;6.686;2023-04-03T06:11:56;8.45;;;4.45;;
57593;SDS011;43423;46.510;6.686;2023-04-03T06:14:24;8.23;;;5.03;;
57593;SDS011;43423;46.510;6.686;2023-04-03T06:16:51;7.85;;;5.05;;
57593;SDS011;43423;46.510;6.686;2023-04-03T06:19:17;7.78;;;4.65;;
57593;SDS011;43423;46.510;6.686;2023-04-03T06:21:42;7.25;;;4.50;;
57593;SDS011;43423;46.510;6.686;2023-04-03T06:24:08;7.88;;;4.80;;
57593;SDS011;43423;46.510;6.686;2023-04-03T06:26:37;11.25;;;4.78;;
57593;SDS011;43423;46.510;6.686;2023-04-03T06:29:02;8.18;;;5.03;;
57593;SDS011;43423;46.510;6.686;2023-04-03T06:31:28;7.88;;;4.40;;
57593;SDS011;43423;46.510;6.686;2023-04-03T06:33:54;10.07;;;5.22;;
57593;SDS011;43423;46.510;6.686;2023-04-03T06:36:21;8.82;;;4.65;;
57593;SDS011;43423;46.510;6.686;2023-04-03T06:38:47;7.88;;;4.78;;
57593;SDS011;43423;46.510;6.686;2023-04-03T06:41:13;8.85;;;4.97;;
57593;SDS011;43423;46.510;6.686;2023-04-03T06:43:39;11.00;;;5.03;;
57593;SDS011;43423;46.510;6.686;2023-04-03T06:46:04;7.18;;;4.50;;
57593;SDS011;43423;46.510;6.686;2023-04-03T06:48:30;9.10;;;4.53;;
57593;SDS011;43423;46.510;6.686;2023-04-03T06:50:56;7.78;;;5.15;;
57593;SDS011;43423;46.510;6.686;2023-04-03T06:53:22;6.68;;;4.90;;
57593;SDS011;43423;46.510;6.686;2023-04-03T06:55:48;7.68;;;3.90;;
57593;SDS011;43423;46.510;6.686;2023-04-03T06:58:13;7.72;;;4.15;;
57593;SDS011;43423;46.510;6.686;2023-04-03T07:00:40;6.32;;;3.97;;
57593;SDS011;43423;46.510;6.686;2023-04-03T07:03:06;7.70;;;4.40;;
57593;SDS011;43423;46.510;6.686;2023-04-03T07:05:32;7.13;;;4.50;;
57593;SDS011;43423;46.510;6.686;2023-04-03T07:07:57;6.97;;;4.80;;
57593;SDS011;43423;46.510;6.686;2023-04-03T07:10:23;7.85;;;4.78;;
57593;SDS011;43423;46.510;6.686;2023-04-03T07:12:48;8.50;;;5.18;;
57593;SDS011;43423;46.510;6.686;2023-04-03T07:15:14;9.80;;;5.03;;
57593;SDS011;43423;46.510;6.686;2023-04-03T07:17:40;6.95;;;4.80;;
57593;SDS011;43423;46.510;6.686;2023-04-03T07:20:06;7.13;;;4.80;;
57593;SDS011;43423;46.510;6.686;2023-04-03T07:22:32;8.85;;;5.90;;
57593;SDS011;43423;46.510;6.686;2023-04-03T07:24:58;7.70;;;4.68;;
57593;SDS011;43423;46.510;6.686;2023-04-03T07:27:24;7.43;;;5.13;;
57593;SDS011;43423;46.510;6.686;2023-04-03T07:29:50;6.80;;;4.60;;
57593;SDS011;43423;46.510;6.686;2023-04-03T07:32:16;8.07;;;6.25;;
57593;SDS011;43423;46.510;6.686;2023-04-03T07:34:42;10.32;;;5.63;;
57593;SDS011;43423;46.510;6.686;2023-04-03T07:37:08;8.65;;;5.45;;
57593;SDS011;43423;46.510;6.686;2023-04-03T07:39:35;8.48;;;5.43;;
57593;SDS011;43423;46.510;6.686;2023-04-03T07:42:01;8.40;;;5.32;;
57593;SDS011;43423;46.510;6.686;2023-04-03T07:44:27;8.35;;;5.20;;
57593;SDS011;43423;46.510;6.686;2023-04-03T07:46:53;13.82;;;7.75;;
57593;SDS011;43423;46.510;6.686;2023-04-03T07:49:21;9.25;;;6.07;;
57593;SDS011;43423;46.510;6.686;2023-04-03T07:51:49;8.40;;;5.50;;
57593;SDS011;43423;46.510;6.686;2023-04-03T07:54:15;8.02;;;5.55;;
57593;SDS011;43423;46.510;6.686;2023-04-03T07:56:40;8.40;;;5.70;;
57593;SDS011;43423;46.510;6.686;2023-04-03T07:59:08;8.13;;;5.28;;
57593;SDS011;43423;46.510;6.686;2023-04-03T08:01:35;7.22;;;5.63;;
57593;SDS011;43423;46.510;6.686;2023-04-03T08:04:01;7.40;;;5.57;;
57593;SDS011;43423;46.510;6.686;2023-04-03T08:06:26;8.60;;;5.93;;
57593;SDS011;43423;46.510;6.686;2023-04-03T08:08:54;9.48;;;6.13;;
57593;SDS011;43423;46.510;6.686;2023-04-03T08:11:20;7.35;;;5.65;;
57593;SDS011;43423;46.510;6.686;2023-04-03T08:13:46;8.05;;;5.20;;
57593;SDS011;43423;46.510;6.686;2023-04-03T08:16:12;11.23;;;7.10;;
57593;SDS011;43423;46.510;6.686;2023-04-03T08:18:41;8.45;;;5.90;;
57593;SDS011;43423;46.510;6.686;2023-04-03T08:21:10;9.88;;;6.60;;
57593;SDS011;43423;46.510;6.686;2023-04-03T08:23:37;9.40;;;5.60;;
57593;SDS011;43423;46.510;6.686;2023-04-03T08:26:07;11.90;;;5.82;;
57593;SDS011;43423;46.510;6.686;2023-04-03T08:28:43;8.98;;;5.72;;
57593;SDS011;43423;46.510;6.686;2023-04-03T08:31:13;7.55;;;5.20;;
57593;SDS011;43423;46.510;6.686;2023-04-03T08:33:40;7.95;;;5.22;;
57593;SDS011;43423;46.510;6.686;2023-04-03T08:36:07;10.90;;;6.40;;
57593;SDS011;43423;46.510;6.686;2023-04-03T08:38:41;9.10;;;6.13;;
57593;SDS011;43423;46.510;6.686;2023-04-03T08:43:54;8.88;;;5.28;;
57593;SDS011;43423;46.510;6.686;2023-04-03T08:46:26;20.98;;;7.93;;
57593;SDS011;43423;46.510;6.686;2023-04-03T08:49:03;16.10;;;6.50;;
57593;SDS011;43423;46.510;6.686;2023-04-03T08:51:32;14.45;;;5.13;;
57593;SDS011;43423;46.510;6.686;2023-04-03T08:54:03;10.10;;;6.90;;
57593;SDS011;43423;46.510;6.686;2023-04-03T08:56:33;9.45;;;5.32;;
57593;SDS011;43423;46.510;6.686;2023-04-03T08:59:01;9.32;;;5.72;;
57593;SDS011;43423;46.510;6.686;2023-04-03T09:01:35;11.13;;;6.82;;
57593;SDS011;43423;46.510;6.686;2023-04-03T09:04:08;18.02;;;5.75;;
57593;SDS011;43423;46.510;6.686;2023-04-03T09:06:36;8.80;;;5.22;;
57593;SDS011;43423;46.510;6.686;2023-04-03T09:14:23;7.07;;;5.50;;
57593;SDS011;43423;46.510;6.686;2023-04-03T09:16:59;10.05;;;6.35;;
57593;SDS011;43423;46.510;6.686;2023-04-03T09:24:50;12.30;;;6.10;;
57593;SDS011;43423;46.510;6.686;2023-04-03T09:27:22;8.95;;;6.13;;
57593;SDS011;43423;46.510;6.686;2023-04-03T09:29:48;12.00;;;6.35;;
57593;SDS011;43423;46.510;6.686;2023-04-03T09:32:18;13.57;;;6.25;;
57593;SDS011;43423;46.510;6.686;2023-04-03T09:34:44;12.68;;;6.57;;
57593;SDS011;43423;46.510;6.686;2023-04-03T09:37:11;14.90;;;8.25;;
57593;SDS011;43423;46.510;6.686;2023-04-03T09:40:05;11.25;;;5.85;;
57593;SDS011;43423;46.510;6.686;2023-04-03T09:42:32;18.23;;;6.32;;
57593;SDS011;43423;46.510;6.686;2023-04-03T09:44:59;9.48;;;6.50;;
57593;SDS011;43423;46.510;6.686;2023-04-03T09:47:29;9.60;;;6.13;;
57593;SDS011;43423;46.510;6.686;2023-04-03T09:52:39;13.65;;;6.25;;
57593;SDS011;43423;46.510;6.686;2023-04-03T09:55:17;10.27;;;6.60;;
57593;SDS011;43423;46.510;6.686;2023-04-03T09:57:58;10.50;;;5.97;;
57593;SDS011;43423;46.510;6.686;2023-04-03T10:03:08;9.15;;;5.28;;
57593;SDS011;43423;46.510;6.686;2023-04-03T10:05:50;11.55;;;5.72;;
57593;SDS011;43423;46.510;6.686;2023-04-03T10:08:23;9.30;;;5.40;;
57593;SDS011;43423;46.510;6.686;2023-04-03T10:11:04;8.80;;;5.22;;
57593;SDS011;43423;46.510;6.686;2023-04-03T10:13:35;8.00;;;4.90;;
57593;SDS011;43423;46.510;6.686;2023-04-03T10:16:06;7.70;;;4.63;;
57593;SDS011;43423;46.510;6.686;2023-04-03T10:18:53;7.30;;;4.40;;
57593;SDS011;43423;46.510;6.686;2023-04-03T10:29:45;7.00;;;4.55;;
57593;SDS011;43423;46.510;6.686;2023-04-03T10:32:34;7.25;;;4.45;;
57593;SDS011;43423;46.510;6.686;2023-04-03T10:38:02;7.05;;;4.50;;
57593;SDS011;43423;46.510;6.686;2023-04-03T10:46:00;6.55;;;3.85;;
57593;SDS011;43423;46.510;6.686;2023-04-03T10:51:48;5.20;;;3.40;;
57593;SDS011;43423;46.510;6.686;2023-04-03T10:54:25;8.93;;;4.22;;
57593;SDS011;43423;46.510;6.686;2023-04-03T10:56:54;6.63;;;4.10;;
57593;SDS011;43423;46.510;6.686;2023-04-03T10:59:35;7.43;;;4.25;;
57593;SDS011;43423;46.510;6.686;2023-04-03T11:04:37;5.63;;;4.07;;
57593;SDS011;43423;46.510;6.686;2023-04-03T11:09:52;5.13;;;3.50;;
57593;SDS011;43423;46.510;6.686;2023-04-03T11:12:41;6.55;;;3.30;;
57593;SDS011;43423;46.510;6.686;2023-04-03T11:15:11;4.90;;;3.60;;
57593;SDS011;43423;46.510;6.686;2023-04-03T11:17:41;4.47;;;3.10;;
57593;SDS011;43423;46.510;6.686;2023-04-03T11:23:05;4.78;;;3.10;;
57593;SDS011;43423;46.510;6.686;2023-04-03T11:25:32;8.98;;;3.63;;
57593;SDS011;43423;46.510;6.686;2023-04-03T11:28:00;5.90;;;3.85;;
57593;SDS011;43423;46.510;6.686;2023-04-03T11:34:05;6.35;;;4.00;;
57593;SDS011;43423;46.510;6.686;2023-04-03T11:36:28;8.20;;;4.82;;
57593;SDS011;43423;46.510;6.686;2023-04-03T11:38:58;5.78;;;3.50;;
57593;SDS011;43423;46.510;6.686;2023-04-03T11:41:28;4.80;;;3.35;;
57593;SDS011;43423;46.510;6.686;2023-04-03T11:44:06;5.43;;;2.92;;
57593;SDS011;43423;46.510;6.686;2023-04-03T11:47:03;5.28;;;3.55;;
57593;SDS011;43423;46.510;6.686;2023-04-03T11:58:02;6.13;;;3.38;;
57593;SDS011;43423;46.510;6.686;2023-04-03T12:05:53;5.55;;;3.70;;
57593;SDS011;43423;46.510;6.686;2023-04-03T12:08:27;6.25;;;3.47;;
57593;SDS011;43423;46.510;6.686;2023-04-03T12:13:34;5.07;;;3.42;;
57593;SDS011;43423;46.510;6.686;2023-04-03T12:16:01;5.10;;;4.03;;
57593;SDS011;43423;46.510;6.686;2023-04-03T12:21:09;4.97;;;3.85;;
57593;SDS011;43423;46.510;6.686;2023-04-03T12:23:59;7.25;;;3.55;;
57593;SDS011;43423;46.510;6.686;2023-04-03T12:35:10;6.10;;;3.88;;
57593;SDS011;43423;46.510;6.686;2023-04-03T12:38:00;4.63;;;3.60;;
57593;SDS011;43423;46.510;6.686;2023-04-03T12:43:46;4.73;;;3.57;;
57593;SDS011;43423;46.510;6.686;2023-04-03T12:46:26;4.15;;;3.35;;
57593;SDS011;43423;46.510;6.686;2023-04-03T12:49:00;4.95;;;3.53;;
57593;SDS011;43423;46.510;6.686;2023-04-03T12:51:40;5.40;;;3.70;;
57593;SDS011;43423;46.510;6.686;2023-04-03T12:57:11;6.35;;;3.50;;
57593;SDS011;43423;46.510;6.686;2023-04-03T12:59:41;4.90;;;3.75;;
57593;SDS011;43423;46.510;6.686;2023-04-03T13:02:18;5.63;;;3.80;;
57593;SDS011;43423;46.510;6.686;2023-04-03T13:04:46;5.32;;;3.03;;
57593;SDS011;43423;46.510;6.686;2023-04-03T13:07:22;4.88;;;3.58;;
57593;SDS011;43423;46.510;6.686;2023-04-03T13:09:57;7.70;;;4.00;;
57593;SDS011;43423;46.510;6.686;2023-04-03T13:12:28;5.35;;;3.83;;
57593;SDS011;43423;46.510;6.686;2023-04-03T13:14:55;4.78;;;3.58;;
57593;SDS011;43423;46.510;6.686;2023-04-03T13:17:24;4.72;;;3.42;;
57593;SDS011;43423;46.510;6.686;2023-04-03T13:19:51;6.75;;;3.35;;
57593;SDS011;43423;46.510;6.686;2023-04-03T13:24:51;5.90;;;3.83;;
57593;SDS011;43423;46.510;6.686;2023-04-03T13:27:19;6.57;;;3.85;;
57593;SDS011;43423;46.510;6.686;2023-04-03T13:29:48;6.05;;;4.00;;
57593;SDS011;43423;46.510;6.686;2023-04-03T13:32:20;6.57;;;3.75;;
57593;SDS011;43423;46.510;6.686;2023-04-03T13:34:48;4.22;;;3.42;;
57593;SDS011;43423;46.510;6.686;2023-04-03T13:37:21;6.35;;;3.92;;
57593;SDS011;43423;46.510;6.686;2023-04-03T13:42:30;4.07;;;3.08;;
57593;SDS011;43423;46.510;6.686;2023-04-03T13:45:10;4.00;;;3.25;;
57593;SDS011;43423;46.510;6.686;2023-04-03T13:47:40;5.88;;;3.90;;
57593;SDS011;43423;46.510;6.686;2023-04-03T13:52:41;6.00;;;4.45;;
57593;SDS011;43423;46.510;6.686;2023-04-03T13:55:28;7.97;;;5.28;;
57593;SDS011;43423;46.510;6.686;2023-04-03T14:00:28;7.43;;;4.25;;
57593;SDS011;43423;46.510;6.686;2023-04-03T14:02:57;6.60;;;4.63;;
57593;SDS011;43423;46.510;6.686;2023-04-03T14:05:23;6.00;;;3.95;;
57593;SDS011;43423;46.510;6.686;2023-04-03T14:07:51;5.13;;;4.10;;
57593;SDS011;43423;46.510;6.686;2023-04-03T14:10:17;7.18;;;4.45;;
57593;SDS011;43423;46.510;6.686;2023-04-03T14:12:43;5.07;;;4.03;;
57593;SDS011;43423;46.510;6.686;2023-04-03T14:15:17;6.55;;;4.40;;
57593;SDS011;43423;46.510;6.686;2023-04-03T14:17:45;7.55;;;4.68;;
57593;SDS011;43423;46.510;6.686;2023-04-03T14:20:14;6.28;;;3.83;;
57593;SDS011;43423;46.510;6.686;2023-04-03T14:22:42;6.95;;;4.10;;
57593;SDS011;43423;46.510;6.686;2023-04-03T14:25:08;5.30;;;3.70;;
57593;SDS011;43423;46.510;6.686;2023-04-03T14:27:35;5.30;;;3.90;;
57593;SDS011;43423;46.510;6.686;2023-04-03T14:30:04;5.20;;;3.90;;
57593;SDS011;43423;46.510;6.686;2023-04-03T14:32:32;5.70;;;4.15;;
57593;SDS011;43423;46.510;6.686;2023-04-03T14:34:58;5.38;;;3.92;;
57593;SDS011;43423;46.510;6.686;2023-04-03T14:37:25;5.38;;;3.60;;
57593;SDS011;43423;46.510;6.686;2023-04-03T14:39:53;5.75;;;3.75;;
57593;SDS011;43423;46.510;6.686;2023-04-03T14:42:21;5.20;;;3.60;;
57593;SDS011;43423;46.510;6.686;2023-04-03T14:44:52;5.18;;;3.95;;
57593;SDS011;43423;46.510;6.686;2023-04-03T14:47:22;6.07;;;3.83;;
57593;SDS011;43423;46.510;6.686;2023-04-03T14:49:51;5.90;;;3.65;;
57593;SDS011;43423;46.510;6.686;2023-04-03T14:52:24;4.30;;;2.97;;
57593;SDS011;43423;46.510;6.686;2023-04-03T14:54:55;5.32;;;3.60;;
57593;SDS011;43423;46.510;6.686;2023-04-03T14:57:23;4.90;;;4.20;;
57593;SDS011;43423;46.510;6.686;2023-04-03T14:59:50;4.35;;;3.60;;
57593;SDS011;43423;46.510;6.686;2023-04-03T15:02:32;5.18;;;3.88;;
57593;SDS011;43423;46.510;6.686;2023-04-03T15:05:00;5.32;;;3.53;;
57593;SDS011;43423;46.510;6.686;2023-04-03T15:07:31;5.47;;;4.35;;
57593;SDS011;43423;46.510;6.686;2023-04-03T15:10:21;5.32;;;3.83;;
57593;SDS011;43423;46.510;6.686;2023-04-03T15:12:46;4.32;;;3.53;;
57593;SDS011;43423;46.510;6.686;2023-04-03T15:15:13;4.32;;;3.83;;
57593;SDS011;43423;46.510;6.686;2023-04-03T15:17:41;4.90;;;3.45;;
57593;SDS011;43423;46.510;6.686;2023-04-03T15:20:18;4.78;;;3.50;;
57593;SDS011;43423;46.510;6.686;2023-04-03T15:22:45;4.55;;;3.85;;
57593;SDS011;43423;46.510;6.686;2023-04-03T15:25:10;5.40;;;4.30;;
57593;SDS011;43423;46.510;6.686;2023-04-03T15:27:36;4.40;;;3.60;;
57593;SDS011;43423;46.510;6.686;2023-04-03T15:30:06;4.65;;;3.67;;
57593;SDS011;43423;46.510;6.686;2023-04-03T15:32:33;5.90;;;4.07;;
57593;SDS011;43423;46.510;6.686;2023-04-03T15:35:00;6.45;;;3.80;;
57593;SDS011;43423;46.510;6.686;2023-04-03T15:37:26;4.30;;;3.75;;
57593;SDS011;43423;46.510;6.686;2023-04-03T15:39:52;3.75;;;3.33;;
57593;SDS011;43423;46.510;6.686;2023-04-03T15:42:17;4.35;;;3.33;;
57593;SDS011;43423;46.510;6.686;2023-04-03T15:44:43;5.95;;;3.75;;
57593;SDS011;43423;46.510;6.686;2023-04-03T15:47:09;4.35;;;3.47;;
57593;SDS011;43423;46.510;6.686;2023-04-03T15:49:34;4.88;;;3.35;;
57593;SDS011;43423;46.510;6.686;2023-04-03T15:52:00;4.55;;;3.53;;
57593;SDS011;43423;46.510;6.686;2023-04-03T15:54:26;3.97;;;3.00;;
57593;SDS011;43423;46.510;6.686;2023-04-03T15:56:54;4.65;;;3.28;;
57593;SDS011;43423;46.510;6.686;2023-04-03T15:59:21;5.03;;;2.92;;
57593;SDS011;43423;46.510;6.686;2023-04-03T16:01:47;4.22;;;3.35;;
57593;SDS011;43423;46.510;6.686;2023-04-03T16:04:14;4.25;;;3.38;;
57593;SDS011;43423;46.510;6.686;2023-04-03T16:06:40;4.47;;;3.60;;
57593;SDS011;43423;46.510;6.686;2023-04-03T16:09:06;3.55;;;3.22;;
57593;SDS011;43423;46.510;6.686;2023-04-03T16:11:33;5.55;;;3.28;;
57593;SDS011;43423;46.510;6.686;2023-04-03T16:14:00;4.72;;;3.60;;
57593;SDS011;43423;46.510;6.686;2023-04-03T16:16:26;3.38;;;3.08;;
57593;SDS011;43423;46.510;6.686;2023-04-03T16:18:53;4.15;;;3.05;;
57593;SDS011;43423;46.510;6.686;2023-04-03T16:21:20;4.97;;;2.90;;
57593;SDS011;43423;46.510;6.686;2023-04-03T16:23:46;4.88;;;3.08;;
57593;SDS011;43423;46.510;6.686;2023-04-03T16:26:12;4.75;;;3.45;;
57593;SDS011;43423;46.510;6.686;2023-04-03T16:28:38;4.13;;;3.53;;
57593;SDS011;43423;46.510;6.686;2023-04-03T16:31:04;5.07;;;3.50;;